createdAt,value
2018-09-01T00:01:26.084Z,12.93
2018-09-01T00:03:54.667Z,14.23
2018-09-01T00:06:23.492Z,16.10
2018-09-01T00:08:52.151Z,14.50
2018-09-01T00:11:20.543Z,13.30
2018-09-01T00:13:49.230Z,12.00
2018-09-01T00:16:17.699Z,15.80
2018-09-01T00:18:46.022Z,15.20
2018-09-01T00:21:14.906Z,11.67
2018-09-01T00:23:43.458Z,11.60
2018-09-01T00:26:12.135Z,10.83
2018-09-01T00:28:40.663Z,13.33
2018-09-01T00:31:09.411Z,13.43
2018-09-01T00:33:38.035Z,15.53
2018-09-01T00:36:06.898Z,14.07
2018-09-01T00:38:40.636Z,12.37
2018-09-01T00:41:09.431Z,13.73
2018-09-01T00:43:38.242Z,15.00
2018-09-01T00:46:06.863Z,12.53
2018-09-01T00:48:35.367Z,13.73
2018-09-01T00:51:03.756Z,12.00
2018-09-01T00:53:32.542Z,12.30
2018-09-01T00:56:01.180Z,13.03
2018-09-01T00:58:29.560Z,16.70
2018-09-01T01:00:58.083Z,11.10
2018-09-01T01:03:26.758Z,14.83
2018-09-01T01:05:55.286Z,15.13
2018-09-01T01:08:23.732Z,15.20
2018-09-01T01:10:52.616Z,14.17
2018-09-01T01:13:20.923Z,13.87
2018-09-01T01:15:49.740Z,10.70
2018-09-01T01:18:18.069Z,13.00
2018-09-01T01:20:46.444Z,12.17
2018-09-01T01:23:15.152Z,12.93
2018-09-01T01:25:43.560Z,11.30
2018-09-01T01:28:12.432Z,14.70
2018-09-01T01:30:40.927Z,13.37
2018-09-01T01:33:09.267Z,12.67
2018-09-01T01:35:37.988Z,11.63
2018-09-01T01:38:06.770Z,12.10
2018-09-01T01:40:35.144Z,11.17
2018-09-01T01:43:03.974Z,12.93
2018-09-01T01:45:32.590Z,13.73
2018-09-01T01:48:01.321Z,14.20
2018-09-01T01:50:29.835Z,14.97
2018-09-01T01:52:58.076Z,12.07
2018-09-01T01:55:26.671Z,14.63
2018-09-01T01:57:55.354Z,14.43
2018-09-01T02:00:23.942Z,12.37
2018-09-01T02:02:52.439Z,9.00
2018-09-01T02:05:25.386Z,15.43
2018-09-01T02:07:53.763Z,13.93
2018-09-01T02:10:22.244Z,13.40
2018-09-01T02:12:50.894Z,12.63
2018-09-01T02:15:19.504Z,15.10
2018-09-01T02:17:47.863Z,14.73
2018-09-01T02:20:16.294Z,12.43
2018-09-01T02:22:45.036Z,15.17
2018-09-01T02:25:13.587Z,11.10
2018-09-01T02:27:42.275Z,12.40
2018-09-01T02:30:10.618Z,14.40
2018-09-01T02:32:39.191Z,11.70
2018-09-01T02:35:08.093Z,13.60
2018-09-01T02:37:36.851Z,15.00
2018-09-01T02:40:05.646Z,12.93
2018-09-01T02:42:34.412Z,11.47
2018-09-01T02:45:03.154Z,12.90
2018-09-01T02:47:31.915Z,14.73
2018-09-01T02:50:00.279Z,11.73
2018-09-01T02:52:28.586Z,11.67
2018-09-01T02:54:56.981Z,12.40
2018-09-01T02:57:25.651Z,12.47
2018-09-01T02:59:54.079Z,11.30
2018-09-01T03:02:28.128Z,9.87
2018-09-01T03:04:56.610Z,10.27
2018-09-01T03:07:25.446Z,15.23
2018-09-01T03:09:53.789Z,14.43
2018-09-01T03:12:22.154Z,12.80
2018-09-01T03:14:50.623Z,13.17
2018-09-01T03:17:19.189Z,10.70
2018-09-01T03:19:47.560Z,10.50
2018-09-01T03:22:15.994Z,12.10
2018-09-01T03:24:44.423Z,13.03
2018-09-01T03:27:12.872Z,11.73
2018-09-01T03:29:41.259Z,11.87
2018-09-01T03:32:09.624Z,13.37
2018-09-01T03:34:38.322Z,12.90
2018-09-01T03:37:06.704Z,13.27
2018-09-01T03:39:35.076Z,11.43
2018-09-01T03:42:03.399Z,12.43
2018-09-01T03:44:31.911Z,10.80
2018-09-01T03:47:00.355Z,12.10
2018-09-01T03:49:28.835Z,12.67
2018-09-01T03:51:57.319Z,14.70
2018-09-01T03:54:25.671Z,9.70
2018-09-01T03:56:54.386Z,11.57
2018-09-01T03:59:23.120Z,11.63
2018-09-01T04:01:51.575Z,13.30
2018-09-01T04:04:19.972Z,14.37
2018-09-01T04:06:48.428Z,10.20
2018-09-01T04:09:16.889Z,12.07
2018-09-01T04:11:45.562Z,11.50
2018-09-01T04:14:14.119Z,9.70
2018-09-01T04:16:42.406Z,11.50
2018-09-01T04:19:18.235Z,12.63
2018-09-01T04:21:48.571Z,13.87
2018-09-01T04:24:17.502Z,13.33
2018-09-01T04:26:46.715Z,12.53
2018-09-01T04:29:15.764Z,11.93
2018-09-01T04:31:44.591Z,11.63
2018-09-01T04:34:13.294Z,11.60
2018-09-01T04:36:41.711Z,10.23
2018-09-01T04:39:11.962Z,10.73
2018-09-01T04:41:40.779Z,11.70
2018-09-01T04:44:09.173Z,11.80
2018-09-01T04:46:37.778Z,13.77
2018-09-01T04:49:06.428Z,12.47
2018-09-01T04:51:35.315Z,12.83
2018-09-01T04:54:04.013Z,13.10
2018-09-01T04:56:32.451Z,10.37
2018-09-01T04:59:01.284Z,11.50
2018-09-01T05:01:30.714Z,11.63
2018-09-01T05:03:59.368Z,10.63
2018-09-01T05:06:27.931Z,11.10
2018-09-01T05:08:56.279Z,11.37
2018-09-01T05:11:24.914Z,9.10
2018-09-01T05:13:53.504Z,7.27
2018-09-01T05:16:22.310Z,9.73
2018-09-01T05:18:50.892Z,8.07
2018-09-01T05:21:19.266Z,8.33
2018-09-01T05:23:47.723Z,7.13
2018-09-01T05:26:16.541Z,7.80
2018-09-01T05:28:45.314Z,7.97
2018-09-01T05:31:13.943Z,7.63
2018-09-01T05:33:42.837Z,9.00
2018-09-01T05:36:11.217Z,9.40
2018-09-01T05:38:39.608Z,6.57
2018-09-01T05:41:08.571Z,6.43
2018-09-01T05:43:36.947Z,8.57
2018-09-01T05:46:05.854Z,6.17
2018-09-01T05:48:34.283Z,4.93
2018-09-01T05:51:02.672Z,5.83
2018-09-01T05:53:31.492Z,6.10
2018-09-01T05:55:59.991Z,6.03
2018-09-01T05:58:28.733Z,7.77
2018-09-01T06:00:57.183Z,7.37
2018-09-01T06:03:25.583Z,5.83
2018-09-01T06:06:35.231Z,6.80
2018-09-01T06:09:04.879Z,4.60
2018-09-01T06:11:33.684Z,4.80
2018-09-01T06:14:19.483Z,7.00
2018-09-01T06:16:48.107Z,8.17
2018-09-01T06:19:16.667Z,6.43
2018-09-01T06:21:45.423Z,6.43
2018-09-01T06:24:13.895Z,5.43
2018-09-01T06:26:42.433Z,4.50
2018-09-01T06:29:12.678Z,6.07
2018-09-01T06:31:45.223Z,5.20
2018-09-01T06:34:13.799Z,7.00
2018-09-01T06:36:42.490Z,5.57
2018-09-01T06:39:10.867Z,7.53
2018-09-01T06:41:39.351Z,7.17
2018-09-01T06:44:08.010Z,5.57
2018-09-01T06:46:36.816Z,7.37
2018-09-01T06:49:05.344Z,6.43
2018-09-01T06:51:34.239Z,6.27
2018-09-01T06:54:02.895Z,5.33
2018-09-01T06:56:32.018Z,4.13
2018-09-01T06:59:00.511Z,4.70
2018-09-01T07:01:29.890Z,5.90
2018-09-01T07:03:58.574Z,6.03
2018-09-01T07:06:28.301Z,6.30
2018-09-01T07:08:56.771Z,6.47
2018-09-01T07:11:25.697Z,5.80
2018-09-01T07:13:54.974Z,6.33
2018-09-01T07:16:23.240Z,6.87
2018-09-01T07:18:51.523Z,5.60
2018-09-01T07:21:19.917Z,6.57
2018-09-01T07:23:48.579Z,4.80
2018-09-01T07:26:16.872Z,5.60
2018-09-01T07:28:45.255Z,6.73
2018-09-01T07:31:13.819Z,6.63
2018-09-01T07:33:42.311Z,5.40
2018-09-01T07:36:10.777Z,4.80
2018-09-01T07:38:39.168Z,6.63
2018-09-01T07:41:08.098Z,6.37
2018-09-01T07:43:36.853Z,6.60
2018-09-01T07:46:05.487Z,6.23
2018-09-01T07:48:33.935Z,5.60
2018-09-01T07:51:02.495Z,5.60
2018-09-01T07:53:30.774Z,6.27
2018-09-01T07:55:59.099Z,5.30
2018-09-01T07:58:27.403Z,10.17
2018-09-01T08:00:55.867Z,4.93
2018-09-01T08:03:24.464Z,5.70
2018-09-01T08:05:53.159Z,6.27
2018-09-01T08:08:21.635Z,5.97
2018-09-01T08:10:50.348Z,6.97
2018-09-01T08:13:19.085Z,7.00
2018-09-01T08:15:47.455Z,5.10
2018-09-01T08:18:16.251Z,5.67
2018-09-01T08:20:44.636Z,5.03
2018-09-01T08:23:13.528Z,5.63
2018-09-01T08:25:42.010Z,8.53
2018-09-01T08:28:10.865Z,4.87
2018-09-01T08:30:39.359Z,6.13
2018-09-01T08:33:07.747Z,5.37
2018-09-01T08:35:36.399Z,6.57
2018-09-01T08:38:04.902Z,6.57
2018-09-01T08:40:34.111Z,5.23
2018-09-01T08:43:14.078Z,6.50
2018-09-01T08:45:42.423Z,8.40
2018-09-01T08:48:11.083Z,6.67
2018-09-01T08:50:39.868Z,7.70
2018-09-01T08:53:08.943Z,7.63
2018-09-01T08:55:37.436Z,6.63
2018-09-01T08:58:06.240Z,7.17
2018-09-01T09:00:35.147Z,6.27
2018-09-01T09:03:04.414Z,6.87
2018-09-01T09:05:33.061Z,5.10
2018-09-01T09:08:01.642Z,5.13
2018-09-01T09:10:30.116Z,6.17
2018-09-01T09:12:58.581Z,7.03
2018-09-01T09:15:27.361Z,4.73
2018-09-01T09:17:55.728Z,5.73
2018-09-01T09:20:24.235Z,7.50
2018-09-01T09:22:52.571Z,5.90
2018-09-01T09:25:21.015Z,5.77
2018-09-01T09:27:49.337Z,6.73
2018-09-01T09:30:17.760Z,7.20
2018-09-01T09:32:46.127Z,8.13
2018-09-01T09:35:14.642Z,8.90
2018-09-01T09:37:43.027Z,6.90
2018-09-01T09:40:11.436Z,5.87
2018-09-01T09:42:39.832Z,8.67
2018-09-01T09:45:08.127Z,9.90
2018-09-01T09:47:37.097Z,6.83
2018-09-01T09:50:05.417Z,5.80
2018-09-01T09:52:33.802Z,7.67
2018-09-01T09:55:02.367Z,7.00
2018-09-01T09:57:30.776Z,7.87
2018-09-01T09:59:59.147Z,10.10
2018-09-01T10:02:27.470Z,7.77
2018-09-01T10:04:55.820Z,7.47
2018-09-01T10:07:24.198Z,8.80
2018-09-01T10:09:52.568Z,7.53
2018-09-01T10:12:20.999Z,10.03
2018-09-01T10:15:22.383Z,6.63
2018-09-01T10:17:50.827Z,8.07
2018-09-01T10:20:19.280Z,6.03
2018-09-01T10:22:47.876Z,7.30
2018-09-01T10:25:16.723Z,7.47
2018-09-01T10:27:45.368Z,7.80
2018-09-01T10:30:14.077Z,8.20
2018-09-01T10:32:42.886Z,6.03
2018-09-01T10:35:11.690Z,6.97
2018-09-01T10:37:40.344Z,7.77
2018-09-01T10:40:09.182Z,8.17
2018-09-01T10:42:37.952Z,7.17
2018-09-01T10:45:06.838Z,6.20
2018-09-01T10:47:35.532Z,6.93
2018-09-01T10:50:04.130Z,8.47
2018-09-01T10:52:32.872Z,6.17
2018-09-01T10:55:01.608Z,6.60
2018-09-01T10:57:30.355Z,6.63
2018-09-01T10:59:59.031Z,8.53
2018-09-01T11:02:27.698Z,10.73
2018-09-01T11:04:56.325Z,8.57
2018-09-01T11:07:25.426Z,7.00
2018-09-01T11:09:54.194Z,7.53
2018-09-01T14:45:44.004Z,7.23
2018-09-01T14:48:13.289Z,5.40
2018-09-01T14:50:41.927Z,4.57
2018-09-01T14:53:10.601Z,6.97
2018-09-01T14:55:39.517Z,5.33
2018-09-01T14:58:07.903Z,8.00
2018-09-01T15:00:36.340Z,8.73
2018-09-01T15:03:05.135Z,6.00
2018-09-01T15:05:34.611Z,9.50
2018-09-01T15:08:03.245Z,7.50
2018-09-01T15:10:31.660Z,6.60
2018-09-01T15:13:00.480Z,8.07
2018-09-01T15:18:49.483Z,6.40
2018-09-01T15:21:18.529Z,5.27
2018-09-01T15:23:47.048Z,5.20
2018-09-01T15:26:37.836Z,5.37
2018-09-01T15:29:38.561Z,5.77
2018-09-01T15:40:07.202Z,8.17
2018-09-01T15:46:31.434Z,5.50
2018-09-01T16:04:05.069Z,5.90
2018-09-01T16:06:33.655Z,7.87
2018-09-01T16:09:02.021Z,6.47
2018-09-01T16:11:31.268Z,5.20
2018-09-01T16:14:10.908Z,5.17
2018-09-01T16:16:54.240Z,5.23
2018-09-01T16:19:23.271Z,5.30
2018-09-01T16:21:51.973Z,7.43
2018-09-01T16:24:21.198Z,4.80
2018-09-01T16:26:50.048Z,5.83
2018-09-01T16:29:19.487Z,5.90
2018-09-01T16:31:49.066Z,5.07
2018-09-01T16:34:18.447Z,5.50
2018-09-01T16:36:48.154Z,6.23
2018-09-01T16:39:17.798Z,7.67
2018-09-01T16:41:46.779Z,5.00
2018-09-01T16:44:16.228Z,5.07
2018-09-01T16:46:45.265Z,4.90
2018-09-01T16:49:14.506Z,5.50
2018-09-01T16:51:43.543Z,5.77
2018-09-01T16:54:12.526Z,5.13
2018-09-01T16:56:41.240Z,5.27
2018-09-01T16:59:10.901Z,5.23
2018-09-01T17:01:39.749Z,6.57
2018-09-01T17:04:09.555Z,5.70
2018-09-01T17:06:39.257Z,5.80
2018-09-01T17:09:08.680Z,7.03
2018-09-01T17:11:38.304Z,5.70
2018-09-01T17:17:15.148Z,11.20
2018-09-01T17:19:44.164Z,7.50
2018-09-01T17:22:13.179Z,5.83
2018-09-01T17:24:42.132Z,6.10
2018-09-01T17:27:11.273Z,6.73
2018-09-01T17:29:40.316Z,5.47
2018-09-01T17:32:09.925Z,6.70
2018-09-01T17:34:39.461Z,6.87
2018-09-01T17:37:08.512Z,5.13
2018-09-01T17:39:38.243Z,8.97
2018-09-01T17:42:07.931Z,6.03
2018-09-01T17:44:37.048Z,6.63
2018-09-01T17:47:06.747Z,5.03
2018-09-01T17:49:36.485Z,5.83
2018-09-01T17:52:05.760Z,6.57
2018-09-01T17:54:34.979Z,6.90
2018-09-01T17:57:04.211Z,7.70
2018-09-01T17:59:33.335Z,5.07
2018-09-01T18:02:02.887Z,6.00
2018-09-01T18:04:31.984Z,7.30
2018-09-01T18:07:01.058Z,6.83
2018-09-01T18:09:30.103Z,7.63
2018-09-01T18:11:59.240Z,8.20
2018-09-01T18:14:59.478Z,5.50
2018-09-01T18:17:28.707Z,5.17
2018-09-01T18:19:57.871Z,4.90
2018-09-01T18:22:27.207Z,4.57
2018-09-01T18:24:56.600Z,8.93
2018-09-01T18:27:26.027Z,6.30
2018-09-01T18:29:55.372Z,5.60
2018-09-01T18:32:24.803Z,4.90
2018-09-01T18:34:54.270Z,6.40
2018-09-01T18:37:23.699Z,5.93
2018-09-01T18:39:53.122Z,4.87
2018-09-01T18:42:22.885Z,8.10
2018-09-01T18:44:52.610Z,8.10
2018-09-01T18:47:22.165Z,4.40
2018-09-01T18:49:51.632Z,4.70
2018-09-01T18:52:21.061Z,7.10
2018-09-01T18:54:50.450Z,6.47
2018-09-01T18:57:19.919Z,5.53
2018-09-01T18:59:49.426Z,6.63
2018-09-01T19:02:18.957Z,7.87
2018-09-01T19:04:48.387Z,4.93
2018-09-01T19:07:17.850Z,7.40
2018-09-01T19:09:47.324Z,5.77
2018-09-01T19:12:16.724Z,5.77
2018-09-01T19:18:11.925Z,7.23
2018-09-01T19:20:41.336Z,7.87
2018-09-01T19:23:11.802Z,6.67
2018-09-01T19:25:41.250Z,4.90
2018-09-01T19:28:10.652Z,6.83
2018-09-01T19:30:40.103Z,4.50
2018-09-01T19:33:09.575Z,4.93
2018-09-01T19:35:39.120Z,5.53
2018-09-01T19:38:08.627Z,6.20
2018-09-01T19:40:38.328Z,6.10
2018-09-01T19:43:07.855Z,4.83
2018-09-01T19:45:38.235Z,6.40
2018-09-01T19:48:07.684Z,5.27
2018-09-01T19:50:37.265Z,4.93
2018-09-01T19:53:06.715Z,5.87
2018-09-01T19:55:36.214Z,4.63
2018-09-01T19:58:05.705Z,6.33
2018-09-01T20:00:35.172Z,5.00
2018-09-01T20:03:04.661Z,5.63
2018-09-01T20:05:34.124Z,6.13
2018-09-01T20:08:04.441Z,4.93
2018-09-01T20:10:33.811Z,8.47
2018-09-01T20:13:03.251Z,5.87
2018-09-01T20:19:01.734Z,5.47
2018-09-01T20:21:31.585Z,5.13
2018-09-01T20:24:00.991Z,5.40
2018-09-01T20:29:52.611Z,4.30
2018-09-01T20:32:22.627Z,5.17
2018-09-01T20:34:51.944Z,5.60
2018-09-01T20:37:21.044Z,6.50
2018-09-01T20:39:50.143Z,7.23
2018-09-01T20:42:19.369Z,7.63
2018-09-01T20:44:48.452Z,4.90
2018-09-01T20:47:17.493Z,4.23
2018-09-01T20:49:46.632Z,7.50
2018-09-01T20:52:15.703Z,4.53
2018-09-01T20:54:44.727Z,6.27
2018-09-01T20:57:13.760Z,4.37
2018-09-01T20:59:42.828Z,5.37
2018-09-01T21:02:11.912Z,4.37
2018-09-01T21:04:41.004Z,5.90
2018-09-01T21:07:10.052Z,8.33
2018-09-01T21:09:39.040Z,4.83
2018-09-01T21:12:07.829Z,7.57
2018-09-01T21:17:54.335Z,5.40
2018-09-01T21:20:22.895Z,5.13
2018-09-01T21:22:51.355Z,6.03
2018-09-01T21:25:19.964Z,5.90
2018-09-01T21:27:48.365Z,4.77
2018-09-01T21:30:16.722Z,5.63
2018-09-01T21:32:45.203Z,5.50
2018-09-01T21:35:14.120Z,6.13
2018-09-01T21:37:42.439Z,4.27
2018-09-01T21:40:14.007Z,7.73
2018-09-01T21:42:42.324Z,4.37
2018-09-01T21:45:11.451Z,5.53
2018-09-01T21:47:39.928Z,6.70
2018-09-01T21:50:09.072Z,4.20
2018-09-01T21:52:37.361Z,6.53
2018-09-01T21:55:05.907Z,7.47
2018-09-01T21:57:34.216Z,4.70
2018-09-01T22:00:02.576Z,5.17
2018-09-01T22:02:30.848Z,5.77
2018-09-01T22:05:04.743Z,5.03
2018-09-01T22:07:33.094Z,6.00
2018-09-01T22:10:01.424Z,5.23
2018-09-01T22:12:29.778Z,5.63
2018-09-01T22:14:58.087Z,5.47
2018-09-01T22:17:26.383Z,7.63
2018-09-01T22:19:54.763Z,5.20
2018-09-01T22:23:09.324Z,5.40
2018-09-01T22:25:38.425Z,6.10
2018-09-01T22:28:06.731Z,4.10
2018-09-01T22:30:35.035Z,6.20
2018-09-01T22:33:03.301Z,4.43
2018-09-01T22:35:31.713Z,4.67
2018-09-01T22:38:00.055Z,6.67
2018-09-01T22:40:28.393Z,5.73
2018-09-01T22:42:56.655Z,5.93
2018-09-01T22:45:24.968Z,4.37
2018-09-01T22:47:53.442Z,4.10
2018-09-01T22:50:21.683Z,5.40
2018-09-01T22:52:49.949Z,5.80
2018-09-01T22:55:18.228Z,4.77
2018-09-01T22:57:46.516Z,7.87
2018-09-01T23:00:14.900Z,5.83
2018-09-01T23:02:43.248Z,4.80
2018-09-01T23:05:11.597Z,4.83
2018-09-01T23:07:39.937Z,5.47
2018-09-01T23:10:08.379Z,6.37
2018-09-01T23:12:36.692Z,8.00
2018-09-01T23:15:05.160Z,5.13
2018-09-01T23:17:33.464Z,5.20
2018-09-01T23:20:01.803Z,5.83
2018-09-01T23:22:30.075Z,4.37
2018-09-01T23:24:58.358Z,5.33
2018-09-01T23:27:26.647Z,5.23
2018-09-01T23:29:54.985Z,4.40
2018-09-01T23:32:23.635Z,5.27
2018-09-01T23:34:52.135Z,4.27
2018-09-01T23:37:20.484Z,7.37
2018-09-01T23:39:48.846Z,5.20
2018-09-01T23:42:17.160Z,5.70
2018-09-01T23:44:45.455Z,5.77
2018-09-01T23:47:13.747Z,7.07
2018-09-01T23:49:42.045Z,4.90
2018-09-01T23:52:10.347Z,4.60
2018-09-01T23:54:38.654Z,6.77
2018-09-01T23:57:07.113Z,5.47
2018-09-01T23:59:35.472Z,5.73
